Rosaria Lauro — IXXO — position and weather

sailwx.info

Track history (hours):
 
Tides and Currents Weather Stations Pressure Air Temp Water Temp Dewpoint Dewpoint Depression Visibility Wind Speed Wind Dir Waves Ship Positions

Rosaria Lauro

Last reported at 2017-Jun-28 06:20 UTC. Time now 2017-Jun-28 07:19 UTC.
Position N 40°45' E 013°58'.

Length 42 m; draft 1.2 m.

Type: Passenger vessel. MMSI: 247055900.

Date/timePositionNaut miles runAvg speedWind from/ knotsBaromVisibWave heightAir tempDewpointWater temp
2017-Jun-28 06:20N 40°45' E 013°58'825.0
2017-Jun-28 06:00N 40°47' E 014°08'1 0.1
2017-Jun-27 18:46N 40°47' E 014°07'7 7.4
2017-Jun-27 17:51N 40°48' E 014°15'8 6.0
2017-Jun-27 16:28N 40°46' E 014°05'6 6.5
2017-Jun-27 15:32N 40°47' E 014°13'124.8
2017-Jun-27 15:29N 40°47' E 014°11'4 1.6
2017-Jun-27 13:08N 40°49' E 014°15'1 2.4
2017-Jun-27 12:37N 40°50' E 014°13'217.1
2017-Jun-27 12:30N 40°50' E 014°16'2 3.7
2017-Jun-27 12:00N 40°48' E 014°15'7 2.7
2017-Jun-27 09:21N 40°46' E 014°05'8 4.7
2017-Jun-27 07:35N 40°50' E 014°15'1 9.2
2017-Jun-27 07:30N 40°50' E 014°16'16 1.0
2017-Jun-26 16:12N 40°45' E 013°57'525.0
2017-Jun-26 16:00N 40°46' E 014°03'1122.0
2017-Jun-26 15:30N 40°50' E 014°16'1 2.4
2017-Jun-26 15:01N 40°49' E 014°17'19 6.7
2017-Jun-26 12:10N 40°46' E 013°52'419.3
2017-Jun-26 11:58N 40°45' E 013°56'612.0
2017-Jun-26 11:31N 40°46' E 014°03'1020.1
2017-Jun-26 11:00N 40°50' E 014°16'0 0.6
2017-Jun-26 10:31N 40°50' E 014°16'8 2.7
2017-Jun-26 07:33N 40°47' E 014°07'226.5
2017-Jun-26 07:29N 40°47' E 014°09'6 8.6
2017-Jun-26 06:49N 40°50' E 014°15'0 0.0
2017-Jun-26 06:29N 40°50' E 014°15'2 3.2
2017-Jun-26 06:00N 40°49' E 014°17'13 1.2
2017-Jun-25 18:48N 40°44' E 014°01'827.3
2017-Jun-25 18:30N 40°47' E 014°11'5 9.7
2017-Jun-25 18:00N 40°50' E 014°15'8 4.5
2017-Jun-25 16:09N 40°46' E 014°06'426.1
2017-Jun-25 16:00N 40°47' E 014°11'5 9.1
2017-Jun-25 15:29N 40°50' E 014°16'14 7.0
2017-Jun-25 13:28N 40°44' E 013°59'1122.8
2017-Jun-25 13:00N 40°47' E 014°12'4 4.8
2017-Jun-25 12:13N 40°50' E 014°16'312.2
2017-Jun-25 12:00N 40°48' E 014°14'1324.3
2017-Jun-25 11:28N 40°45' E 013°57'4 3.7
2017-Jun-25 10:20N 40°45' E 013°52'411.5
2017-Jun-25 10:00N 40°45' E 013°56'914.9
2017-Jun-25 09:24N 40°46' E 014°08'7 7.7
2017-Jun-25 08:28N 40°50' E 014°16'16 8.1
2017-Jun-25 06:30N 40°45' E 013°56'918.9
2017-Jun-25 06:01N 40°46' E 014°09'612.6
2017-Jun-25 05:30N 40°50' E 014°15'6 0.5
2017-Jun-24 18:42N 40°47' E 014°10'6 7.9
2017-Jun-24 17:54N 40°50' E 014°17'11 8.3
2017-Jun-24 16:31N 40°45' E 014°03'126.2
2017-Jun-24 16:29N 40°45' E 014°04'1019.1
2017-Jun-24 15:58N 40°50' E 014°16'0 0.2
2017-Jun-24 15:30N 40°50' E 014°15'1119.0
2017-Jun-24 14:55N 40°44' E 014°03'3 2.3
2017-Jun-24 13:26N 40°45' E 013°58'1022.5
2017-Jun-24 13:00N 40°47' E 014°11'5 8.8
2017-Jun-24 12:28N 40°50' E 014°15'2 4.9
2017-Jun-24 12:00N 40°48' E 014°15'1325.0
2017-Jun-24 11:31N 40°44' E 013°59'5 2.7
2017-Jun-24 09:31N 40°46' E 014°06'123.4
2017-Jun-24 09:28N 40°46' E 014°07'8 7.8
2017-Jun-24 08:30N 40°50' E 014°16'11 4.5
2017-Jun-24 06:11N 40°45' E 014°04'425.0
2017-Jun-24 06:00N 40°46' E 014°09'612.0
2017-Jun-24 05:30N 40°50' E 014°15'14 1.4
2017-Jun-23 19:08N 40°45' E 013°57'323.2
2017-Jun-23 19:00N 40°46' E 014°02'1123.1
2017-Jun-23 18:30N 40°49' E 014°16'1 1.3
2017-Jun-23 17:59N 40°49' E 014°17'12 6.2
2017-Jun-23 16:00N 40°46' E 014°01'1223.9
2017-Jun-23 15:30N 40°49' E 014°16'1 2.4
2017-Jun-23 14:56N 40°50' E 014°15'1 0.7
2017-Jun-23 13:57N 40°51' E 014°16'0 0.0
2017-Jun-23 12:34N 40°51' E 014°16'0 0.1
2017-Jun-23 12:30N 40°51' E 014°16'0 0.0
2017-Jun-23 12:00N 40°51' E 014°16'0 0.0
2017-Jun-23 11:28N 40°51' E 014°16'0 0.1
2017-Jun-23 07:27N 40°50' E 014°16'16 1.3
2017-Jun-22 19:07N 40°45' E 013°56'322.6
2017-Jun-22 19:00N 40°46' E 013°60'1311.7
2017-Jun-22 17:52N 40°50' E 014°17'923.3
2017-Jun-22 17:29N 40°46' E 014°06'711.6
2017-Jun-22 16:53N 40°45' E 013°57'1 2.5
2017-Jun-22 16:19N 40°46' E 013°58'826.0
2017-Jun-22 16:00N 40°47' E 014°08'612.0
2017-Jun-22 15:29N 40°50' E 014°15'1017.1
2017-Jun-22 14:55N 40°47' E 014°03'5 3.5
2017-Jun-22 13:25N 40°45' E 013°57'923.4
2017-Jun-22 13:01N 40°47' E 014°09'611.9
2017-Jun-22 12:30N 40°50' E 014°15'2 3.2
2017-Jun-22 12:01N 40°49' E 014°17'2 0.4
2017-Jun-22 07:37N 40°50' E 014°15'1 5.7
2017-Jun-22 07:27N 40°50' E 014°17'7 0.4
2017-Jun-21 15:45N 40°47' E 014°09'625.2
2017-Jun-21 15:30N 40°49' E 014°16'1 1.1
2017-Jun-21 14:59N 40°49' E 014°17'15 4.6
2017-Jun-21 11:41N 40°45' E 013°57'925.3
2017-Jun-21 11:20N 40°47' E 014°09'2 0.8
2017-Jun-21 08:09N 40°47' E 014°12'5 2.2
2017-Jun-21 06:05N 40°46' E 014°06'225.8
2017-Jun-21 06:00N 40°47' E 014°08'0 0.0
2017-Jun-20 18:43N 40°47' E 014°08'6 6.2
2017-Jun-20 17:47N 40°48' E 014°16'10 5.5
2017-Jun-20 15:59N 40°46' E 014°03'1123.5
2017-Jun-20 15:30N 40°50' E 014°17'1 2.5
2017-Jun-20 15:00N 40°49' E 014°16'7 2.0
2017-Jun-20 11:31N 40°46' E 014°07'024.7
2017-Jun-20 11:31N 40°46' E 014°07'5 4.7
2017-Jun-20 10:29N 40°48' E 014°14'13 6.4
2017-Jun-20 08:30N 40°45' E 013°57'11 9.2
2017-Jun-20 07:15N 40°47' E 014°12'12 1.5
2017-Jun-19 23:12N 40°45' E 013°56'0 0.0
2017-Jun-19 23:00N 40°45' E 013°56'0 0.0
2017-Jun-19 20:59N 40°45' E 013°56'0 0.0
2017-Jun-19 19:22N 40°45' E 013°56'0 0.0
2017-Jun-19 19:00N 40°45' E 013°56'  
Track history (hours):
 
Tides and Currents Weather Stations Pressure Air Temp Water Temp Dewpoint Dewpoint Depression Visibility Wind Speed Wind Dir Waves Ship Positions

Rosaria Lauro

Last reported at 2017-Jun-28 06:20 UTC. Time now 2017-Jun-28 07:19 UTC.
Position N 40°45' E 013°58'.

Length 42 m; draft 1.2 m.

Type: Passenger vessel. MMSI: 247055900.

Date/timePositionNaut miles runAvg speedWind from/ knotsBaromVisibWave heightAir tempDewpointWater temp
2017-Jun-28 06:20N 40°45' E 013°58'825.0
2017-Jun-28 06:00N 40°47' E 014°08'1 0.1
2017-Jun-27 18:46N 40°47' E 014°07'7 7.4
2017-Jun-27 17:51N 40°48' E 014°15'8 6.0
2017-Jun-27 16:28N 40°46' E 014°05'6 6.5
2017-Jun-27 15:32N 40°47' E 014°13'124.8
2017-Jun-27 15:29N 40°47' E 014°11'4 1.6
2017-Jun-27 13:08N 40°49' E 014°15'1 2.4
2017-Jun-27 12:37N 40°50' E 014°13'217.1
2017-Jun-27 12:30N 40°50' E 014°16'2 3.7
2017-Jun-27 12:00N 40°48' E 014°15'7 2.7
2017-Jun-27 09:21N 40°46' E 014°05'8 4.7
2017-Jun-27 07:35N 40°50' E 014°15'1 9.2
2017-Jun-27 07:30N 40°50' E 014°16'16 1.0
2017-Jun-26 16:12N 40°45' E 013°57'525.0
2017-Jun-26 16:00N 40°46' E 014°03'1122.0
2017-Jun-26 15:30N 40°50' E 014°16'1 2.4
2017-Jun-26 15:01N 40°49' E 014°17'19 6.7
2017-Jun-26 12:10N 40°46' E 013°52'419.3
2017-Jun-26 11:58N 40°45' E 013°56'612.0
2017-Jun-26 11:31N 40°46' E 014°03'1020.1
2017-Jun-26 11:00N 40°50' E 014°16'0 0.6
2017-Jun-26 10:31N 40°50' E 014°16'8 2.7
2017-Jun-26 07:33N 40°47' E 014°07'226.5
2017-Jun-26 07:29N 40°47' E 014°09'6 8.6
2017-Jun-26 06:49N 40°50' E 014°15'0 0.0
2017-Jun-26 06:29N 40°50' E 014°15'2 3.2
2017-Jun-26 06:00N 40°49' E 014°17'13 1.2
2017-Jun-25 18:48N 40°44' E 014°01'827.3
2017-Jun-25 18:30N 40°47' E 014°11'5 9.7
2017-Jun-25 18:00N 40°50' E 014°15'8 4.5
2017-Jun-25 16:09N 40°46' E 014°06'426.1
2017-Jun-25 16:00N 40°47' E 014°11'5 9.1
2017-Jun-25 15:29N 40°50' E 014°16'14 7.0
2017-Jun-25 13:28N 40°44' E 013°59'1122.8
2017-Jun-25 13:00N 40°47' E 014°12'4 4.8
2017-Jun-25 12:13N 40°50' E 014°16'312.2
2017-Jun-25 12:00N 40°48' E 014°14'1324.3
2017-Jun-25 11:28N 40°45' E 013°57'4 3.7
2017-Jun-25 10:20N 40°45' E 013°52'411.5
2017-Jun-25 10:00N 40°45' E 013°56'914.9
2017-Jun-25 09:24N 40°46' E 014°08'7 7.7
2017-Jun-25 08:28N 40°50' E 014°16'16 8.1
2017-Jun-25 06:30N 40°45' E 013°56'918.9
2017-Jun-25 06:01N 40°46' E 014°09'612.6
2017-Jun-25 05:30N 40°50' E 014°15'6 0.5
2017-Jun-24 18:42N 40°47' E 014°10'6 7.9
2017-Jun-24 17:54N 40°50' E 014°17'11 8.3
2017-Jun-24 16:31N 40°45' E 014°03'126.2
2017-Jun-24 16:29N 40°45' E 014°04'1019.1
2017-Jun-24 15:58N 40°50' E 014°16'0 0.2
2017-Jun-24 15:30N 40°50' E 014°15'1119.0
2017-Jun-24 14:55N 40°44' E 014°03'3 2.3
2017-Jun-24 13:26N 40°45' E 013°58'1022.5
2017-Jun-24 13:00N 40°47' E 014°11'5 8.8
2017-Jun-24 12:28N 40°50' E 014°15'2 4.9
2017-Jun-24 12:00N 40°48' E 014°15'1325.0
2017-Jun-24 11:31N 40°44' E 013°59'5 2.7
2017-Jun-24 09:31N 40°46' E 014°06'123.4
2017-Jun-24 09:28N 40°46' E 014°07'8 7.8
2017-Jun-24 08:30N 40°50' E 014°16'11 4.5
2017-Jun-24 06:11N 40°45' E 014°04'425.0
2017-Jun-24 06:00N 40°46' E 014°09'612.0
2017-Jun-24 05:30N 40°50' E 014°15'14 1.4
2017-Jun-23 19:08N 40°45' E 013°57'323.2
2017-Jun-23 19:00N 40°46' E 014°02'1123.1
2017-Jun-23 18:30N 40°49' E 014°16'1 1.3
2017-Jun-23 17:59N 40°49' E 014°17'12 6.2
2017-Jun-23 16:00N 40°46' E 014°01'1223.9
2017-Jun-23 15:30N 40°49' E 014°16'1 2.4
2017-Jun-23 14:56N 40°50' E 014°15'1 0.7
2017-Jun-23 13:57N 40°51' E 014°16'0 0.0
2017-Jun-23 12:34N 40°51' E 014°16'0 0.1
2017-Jun-23 12:30N 40°51' E 014°16'0 0.0
2017-Jun-23 12:00N 40°51' E 014°16'0 0.0
2017-Jun-23 11:28N 40°51' E 014°16'0 0.1
2017-Jun-23 07:27N 40°50' E 014°16'16 1.3
2017-Jun-22 19:07N 40°45' E 013°56'322.6
2017-Jun-22 19:00N 40°46' E 013°60'1311.7
2017-Jun-22 17:52N 40°50' E 014°17'923.3
2017-Jun-22 17:29N 40°46' E 014°06'711.6
2017-Jun-22 16:53N 40°45' E 013°57'1 2.5
2017-Jun-22 16:19N 40°46' E 013°58'826.0
2017-Jun-22 16:00N 40°47' E 014°08'612.0
2017-Jun-22 15:29N 40°50' E 014°15'1017.1
2017-Jun-22 14:55N 40°47' E 014°03'5 3.5
2017-Jun-22 13:25N 40°45' E 013°57'923.4
2017-Jun-22 13:01N 40°47' E 014°09'611.9
2017-Jun-22 12:30N 40°50' E 014°15'2 3.2
2017-Jun-22 12:01N 40°49' E 014°17'2 0.4
2017-Jun-22 07:37N 40°50' E 014°15'1 5.7
2017-Jun-22 07:27N 40°50' E 014°17'7 0.4
2017-Jun-21 15:45N 40°47' E 014°09'625.2
2017-Jun-21 15:30N 40°49' E 014°16'1 1.1
2017-Jun-21 14:59N 40°49' E 014°17'15 4.6
2017-Jun-21 11:41N 40°45' E 013°57'925.3
2017-Jun-21 11:20N 40°47' E 014°09'2 0.8
2017-Jun-21 08:09N 40°47' E 014°12'5 2.2
2017-Jun-21 06:05N 40°46' E 014°06'225.8
2017-Jun-21 06:00N 40°47' E 014°08'0 0.0
2017-Jun-20 18:43N 40°47' E 014°08'6 6.2
2017-Jun-20 17:47N 40°48' E 014°16'10 5.5
2017-Jun-20 15:59N 40°46' E 014°03'1123.5
2017-Jun-20 15:30N 40°50' E 014°17'1 2.5
2017-Jun-20 15:00N 40°49' E 014°16'7 2.0
2017-Jun-20 11:31N 40°46' E 014°07'024.7
2017-Jun-20 11:31N 40°46' E 014°07'5 4.7
2017-Jun-20 10:29N 40°48' E 014°14'13 6.4
2017-Jun-20 08:30N 40°45' E 013°57'11 9.2
2017-Jun-20 07:15N 40°47' E 014°12'12 1.5
2017-Jun-19 23:12N 40°45' E 013°56'0 0.0
2017-Jun-19 23:00N 40°45' E 013°56'0 0.0
2017-Jun-19 20:59N 40°45' E 013°56'0 0.0
2017-Jun-19 19:22N 40°45' E 013°56'0 0.0
2017-Jun-19 19:00N 40°45' E 013°56'  

Dump ship's entire track history